Vedra, Spain
Current Conditions -  °F | °C
As of 11:30 PM on Monday 26 Jan 2015 (Local Time) from LEST Reporting Station
Broken Clouds Broken Clouds  
Wind Chill: 42°   Ceiling: 1900
Heat Index: 45°   Visibility: 6mi
Dew Point: 43°   Wind: 5mph
Humidity: 93%   Direction: 40°NE
Pressure: 30.53"   Gusts: NA
Location:  42.78°N, 8.48°W
Report Text: LEST 262230Z 04004KT 9999 BKN019 07/06 Q1034 NOSIG
Loading
Personal Weather Stations






























Interactive Weather Map New forecast layout! Learn more

10-Day Weather Forecast

Advertisements
Track Severe Weather on mobile